sensor_id;sensor_type;location;lat;lon;timestamp;temperature;humidity
6954;DHT22;3516;47.980;8.808;2023-04-24T04:19:44;7.90;99.90
6954;DHT22;3516;47.980;8.808;2023-04-24T04:22:11;7.90;99.90
6954;DHT22;3516;47.980;8.808;2023-04-24T04:24:38;7.90;99.90
6954;DHT22;3516;47.980;8.808;2023-04-24T04:27:06;7.90;99.90
6954;DHT22;3516;47.980;8.808;2023-04-24T04:29:33;7.90;99.90
6954;DHT22;3516;47.980;8.808;2023-04-24T04:32:01;7.90;99.90
6954;DHT22;3516;47.980;8.808;2023-04-24T04:34:28;8.00;99.90
6954;DHT22;3516;47.980;8.808;2023-04-24T04:36:56;8.10;99.90
6954;DHT22;3516;47.980;8.808;2023-04-24T04:39:24;8.10;99.90
6954;DHT22;3516;47.980;8.808;2023-04-24T04:41:51;8.10;99.90
6954;DHT22;3516;47.980;8.808;2023-04-24T04:44:18;8.10;99.90
6954;DHT22;3516;47.980;8.808;2023-04-24T04:46:45;8.10;99.90
6954;DHT22;3516;47.980;8.808;2023-04-24T04:49:13;8.20;99.90
6954;DHT22;3516;47.980;8.808;2023-04-24T04:51:42;8.20;99.90
6954;DHT22;3516;47.980;8.808;2023-04-24T04:54:10;8.20;99.90
6954;DHT22;3516;47.980;8.808;2023-04-24T04:56:36;8.20;99.90
6954;DHT22;3516;47.980;8.808;2023-04-24T04:59:03;8.20;99.90
6954;DHT22;3516;47.980;8.808;2023-04-24T05:01:31;8.20;99.90
6954;DHT22;3516;47.980;8.808;2023-04-24T05:03:58;8.20;99.90
6954;DHT22;3516;47.980;8.808;2023-04-24T05:06:25;8.30;99.90
6954;DHT22;3516;47.980;8.808;2023-04-24T05:08:51;8.30;99.90
6954;DHT22;3516;47.980;8.808;2023-04-24T05:11:23;8.30;99.90
6954;DHT22;3516;47.980;8.808;2023-04-24T05:13:50;8.30;99.90
6954;DHT22;3516;47.980;8.808;2023-04-24T10:11:30;13.30;40.80
6954;DHT22;3516;47.980;8.808;2023-04-24T10:13:57;13.50;41.50
6954;DHT22;3516;47.980;8.808;2023-04-24T10:16:25;13.60;40.90
6954;DHT22;3516;47.980;8.808;2023-04-24T10:18:54;13.50;40.10
6954;DHT22;3516;47.980;8.808;2023-04-24T10:21:21;13.40;41.80
6954;DHT22;3516;47.980;8.808;2023-04-24T10:23:49;13.40;42.20
6954;DHT22;3516;47.980;8.808;2023-04-24T10:26:17;13.40;41.80
6954;DHT22;3516;47.980;8.808;2023-04-24T10:28:47;13.10;42.20
6954;DHT22;3516;47.980;8.808;2023-04-24T10:31:14;12.90;44.10
6954;DHT22;3516;47.980;8.808;2023-04-24T10:33:42;12.90;44.60
6954;DHT22;3516;47.980;8.808;2023-04-24T10:36:10;13.10;48.20
6954;DHT22;3516;47.980;8.808;2023-04-24T10:38:38;13.20;44.60
6954;DHT22;3516;47.980;8.808;2023-04-24T10:41:07;13.30;45.90
6954;DHT22;3516;47.980;8.808;2023-04-24T10:43:36;13.30;45.20
6954;DHT22;3516;47.980;8.808;2023-04-24T10:46:05;13.40;44.30
6954;DHT22;3516;47.980;8.808;2023-04-24T10:48:32;13.30;43.00
6954;DHT22;3516;47.980;8.808;2023-04-24T10:50:59;13.60;43.30
6954;DHT22;3516;47.980;8.808;2023-04-24T10:53:29;13.60;41.10
6954;DHT22;3516;47.980;8.808;2023-04-24T10:56:03;13.60;40.00
6954;DHT22;3516;47.980;8.808;2023-04-24T10:58:37;13.50;40.90
6954;DHT22;3516;47.980;8.808;2023-04-24T11:01:07;13.40;40.30
6954;DHT22;3516;47.980;8.808;2023-04-24T11:03:34;13.30;40.30
6954;DHT22;3516;47.980;8.808;2023-04-24T11:06:03;13.00;40.40
6954;DHT22;3516;47.980;8.808;2023-04-24T11:08:32;12.80;42.70
6954;DHT22;3516;47.980;8.808;2023-04-24T11:11:07;12.60;42.60
6954;DHT22;3516;47.980;8.808;2023-04-24T11:14:03;12.40;43.90
6954;DHT22;3516;47.980;8.808;2023-04-24T11:16:36;12.20;43.90
6954;DHT22;3516;47.980;8.808;2023-04-24T11:19:05;12.00;45.50
6954;DHT22;3516;47.980;8.808;2023-04-24T11:21:39;11.80;44.20
6954;DHT22;3516;47.980;8.808;2023-04-24T11:24:24;11.70;45.20
6954;DHT22;3516;47.980;8.808;2023-04-24T11:26:51;11.70;44.30
6954;DHT22;3516;47.980;8.808;2023-04-24T11:29:20;11.70;44.40
6954;DHT22;3516;47.980;8.808;2023-04-24T11:31:48;11.90;46.20
6954;DHT22;3516;47.980;8.808;2023-04-24T11:34:17;12.30;44.40
6954;DHT22;3516;47.980;8.808;2023-04-24T11:36:44;12.40;41.90
6954;DHT22;3516;47.980;8.808;2023-04-24T11:39:12;12.40;42.50
6954;DHT22;3516;47.980;8.808;2023-04-24T11:41:39;12.30;42.00
6954;DHT22;3516;47.980;8.808;2023-04-24T11:44:07;12.40;42.20
6954;DHT22;3516;47.980;8.808;2023-04-24T11:46:34;12.60;44.10
6954;DHT22;3516;47.980;8.808;2023-04-24T11:49:04;13.00;44.40
6954;DHT22;3516;47.980;8.808;2023-04-24T11:51:31;13.30;40.60
6954;DHT22;3516;47.980;8.808;2023-04-24T11:53:58;13.50;37.80
6954;DHT22;3516;47.980;8.808;2023-04-24T11:56:26;13.70;37.60
6954;DHT22;3516;47.980;8.808;2023-04-24T11:58:53;13.60;36.30
6954;DHT22;3516;47.980;8.808;2023-04-24T12:01:21;13.50;36.00
6954;DHT22;3516;47.980;8.808;2023-04-24T12:03:49;13.70;36.50
6954;DHT22;3516;47.980;8.808;2023-04-24T12:06:17;13.90;36.50
6954;DHT22;3516;47.980;8.808;2023-04-24T12:08:48;14.30;36.70
6954;DHT22;3516;47.980;8.808;2023-04-24T12:11:16;14.30;35.30
6954;DHT22;3516;47.980;8.808;2023-04-24T12:13:44;14.30;35.50
6954;DHT22;3516;47.980;8.808;2023-04-24T12:16:11;14.10;33.90
6954;DHT22;3516;47.980;8.808;2023-04-24T12:18:42;14.20;34.60
6954;DHT22;3516;47.980;8.808;2023-04-24T12:21:21;14.40;34.90
6954;DHT22;3516;47.980;8.808;2023-04-24T12:23:49;14.00;33.00
6954;DHT22;3516;47.980;8.808;2023-04-24T12:26:17;14.00;33.40
6954;DHT22;3516;47.980;8.808;2023-04-24T12:28:47;14.00;33.10
6954;DHT22;3516;47.980;8.808;2023-04-24T12:31:15;14.00;34.20
6954;DHT22;3516;47.980;8.808;2023-04-24T12:33:42;14.00;33.40
6954;DHT22;3516;47.980;8.808;2023-04-24T12:36:10;14.00;33.50
6954;DHT22;3516;47.980;8.808;2023-04-24T12:38:39;14.10;34.60
6954;DHT22;3516;47.980;8.808;2023-04-24T12:41:07;14.10;34.20
6954;DHT22;3516;47.980;8.808;2023-04-24T12:43:34;13.60;35.50
6954;DHT22;3516;47.980;8.808;2023-04-24T12:46:02;13.50;37.40
6954;DHT22;3516;47.980;8.808;2023-04-24T12:48:29;13.30;37.90
6954;DHT22;3516;47.980;8.808;2023-04-24T12:50:57;13.20;38.70
6954;DHT22;3516;47.980;8.808;2023-04-24T12:53:26;13.10;38.20
6954;DHT22;3516;47.980;8.808;2023-04-24T12:55:56;12.70;39.80
6954;DHT22;3516;47.980;8.808;2023-04-24T12:58:22;12.70;40.40
6954;DHT22;3516;47.980;8.808;2023-04-24T13:00:49;12.70;41.20
6954;DHT22;3516;47.980;8.808;2023-04-24T13:03:16;12.70;41.20
6954;DHT22;3516;47.980;8.808;2023-04-24T13:05:43;12.60;43.50
6954;DHT22;3516;47.980;8.808;2023-04-24T13:08:10;12.80;43.60
6954;DHT22;3516;47.980;8.808;2023-04-24T13:10:38;12.90;43.00
6954;DHT22;3516;47.980;8.808;2023-04-24T13:13:06;13.20;42.10
6954;DHT22;3516;47.980;8.808;2023-04-24T13:15:33;13.20;39.90
6954;DHT22;3516;47.980;8.808;2023-04-24T13:18:00;13.50;41.60
6954;DHT22;3516;47.980;8.808;2023-04-24T13:20:27;13.80;39.30
6954;DHT22;3516;47.980;8.808;2023-04-24T13:22:54;13.70;37.10
6954;DHT22;3516;47.980;8.808;2023-04-24T13:25:21;14.00;37.40
6954;DHT22;3516;47.980;8.808;2023-04-24T13:27:48;14.00;36.00
6954;DHT22;3516;47.980;8.808;2023-04-24T13:30:17;14.00;36.00
6954;DHT22;3516;47.980;8.808;2023-04-24T13:32:44;13.80;35.50
6954;DHT22;3516;47.980;8.808;2023-04-24T13:35:11;13.70;36.00
6954;DHT22;3516;47.980;8.808;2023-04-24T13:37:38;13.90;36.90
6954;DHT22;3516;47.980;8.808;2023-04-24T13:40:05;14.00;36.00
6954;DHT22;3516;47.980;8.808;2023-04-24T13:42:32;13.90;37.30
6954;DHT22;3516;47.980;8.808;2023-04-24T13:44:59;13.80;35.90
6954;DHT22;3516;47.980;8.808;2023-04-24T13:47:27;13.60;36.10
6954;DHT22;3516;47.980;8.808;2023-04-24T13:49:54;13.70;37.10
6954;DHT22;3516;47.980;8.808;2023-04-24T13:52:21;13.90;37.30
6954;DHT22;3516;47.980;8.808;2023-04-24T13:54:48;14.00;36.20
6954;DHT22;3516;47.980;8.808;2023-04-24T13:57:14;14.20;35.50
6954;DHT22;3516;47.980;8.808;2023-04-24T13:59:42;14.20;35.40
6954;DHT22;3516;47.980;8.808;2023-04-24T14:02:09;14.20;34.90
6954;DHT22;3516;47.980;8.808;2023-04-24T14:04:37;14.20;34.60
6954;DHT22;3516;47.980;8.808;2023-04-24T14:07:03;14.10;34.40
6954;DHT22;3516;47.980;8.808;2023-04-24T14:09:30;13.90;33.60
6954;DHT22;3516;47.980;8.808;2023-04-24T14:11:57;14.00;35.60
6954;DHT22;3516;47.980;8.808;2023-04-24T14:14:23;13.90;35.30
6954;DHT22;3516;47.980;8.808;2023-04-24T14:16:50;13.90;35.00
6954;DHT22;3516;47.980;8.808;2023-04-24T14:19:17;13.90;35.00
6954;DHT22;3516;47.980;8.808;2023-04-24T14:21:45;13.90;34.20
6954;DHT22;3516;47.980;8.808;2023-04-24T14:24:12;13.80;35.50
6954;DHT22;3516;47.980;8.808;2023-04-24T14:26:39;13.70;35.20
6954;DHT22;3516;47.980;8.808;2023-04-24T14:29:05;13.70;35.20
6954;DHT22;3516;47.980;8.808;2023-04-24T14:31:32;13.70;35.10
6954;DHT22;3516;47.980;8.808;2023-04-24T14:33:59;13.40;36.10
6954;DHT22;3516;47.980;8.808;2023-04-24T14:36:25;13.10;36.60
6954;DHT22;3516;47.980;8.808;2023-04-24T14:38:53;13.10;38.90
6954;DHT22;3516;47.980;8.808;2023-04-24T14:41:20;13.30;38.60
6954;DHT22;3516;47.980;8.808;2023-04-24T14:43:47;13.30;38.10
6954;DHT22;3516;47.980;8.808;2023-04-24T14:46:13;13.30;40.90
6954;DHT22;3516;47.980;8.808;2023-04-24T14:48:41;13.40;39.60
6954;DHT22;3516;47.980;8.808;2023-04-24T14:51:08;13.50;40.80
6954;DHT22;3516;47.980;8.808;2023-04-24T14:53:34;13.50;39.70
6954;DHT22;3516;47.980;8.808;2023-04-24T14:56:03;13.30;41.60
6954;DHT22;3516;47.980;8.808;2023-04-24T14:58:29;13.40;40.00
6954;DHT22;3516;47.980;8.808;2023-04-24T15:00:56;13.30;41.50
6954;DHT22;3516;47.980;8.808;2023-04-24T15:03:23;13.10;40.90
6954;DHT22;3516;47.980;8.808;2023-04-24T15:05:52;13.00;41.50
6954;DHT22;3516;47.980;8.808;2023-04-24T15:08:18;12.80;41.90
6954;DHT22;3516;47.980;8.808;2023-04-24T15:10:45;12.80;43.90
6954;DHT22;3516;47.980;8.808;2023-04-24T15:13:14;12.80;44.30
6954;DHT22;3516;47.980;8.808;2023-04-24T15:15:40;12.70;43.40
6954;DHT22;3516;47.980;8.808;2023-04-24T15:18:08;12.60;44.00
6954;DHT22;3516;47.980;8.808;2023-04-24T15:20:36;12.50;44.70
6954;DHT22;3516;47.980;8.808;2023-04-24T15:23:04;12.30;45.30
6954;DHT22;3516;47.980;8.808;2023-04-24T15:25:32;12.10;46.10
6954;DHT22;3516;47.980;8.808;2023-04-24T15:27:58;11.80;47.50
6954;DHT22;3516;47.980;8.808;2023-04-24T15:30:27;11.60;49.10
6954;DHT22;3516;47.980;8.808;2023-04-24T15:32:54;11.40;51.50
6954;DHT22;3516;47.980;8.808;2023-04-24T15:35:21;11.30;52.80
6954;DHT22;3516;47.980;8.808;2023-04-24T15:37:48;11.20;55.00
6954;DHT22;3516;47.980;8.808;2023-04-24T15:40:15;11.20;56.80
6954;DHT22;3516;47.980;8.808;2023-04-24T15:42:42;11.30;57.50
6954;DHT22;3516;47.980;8.808;2023-04-24T15:45:10;11.30;55.60
6954;DHT22;3516;47.980;8.808;2023-04-24T15:47:38;11.50;56.10
6954;DHT22;3516;47.980;8.808;2023-04-24T15:50:06;11.50;56.30
6954;DHT22;3516;47.980;8.808;2023-04-24T15:52:35;11.70;56.50
6954;DHT22;3516;47.980;8.808;2023-04-24T15:55:03;11.80;55.40
6954;DHT22;3516;47.980;8.808;2023-04-24T15:57:29;11.90;53.90
6954;DHT22;3516;47.980;8.808;2023-04-24T15:59:56;11.90;55.20
6954;DHT22;3516;47.980;8.808;2023-04-24T16:02:23;11.90;54.90
6954;DHT22;3516;47.980;8.808;2023-04-24T16:04:51;11.90;55.20
6954;DHT22;3516;47.980;8.808;2023-04-24T16:07:19;11.80;56.70
6954;DHT22;3516;47.980;8.808;2023-04-24T16:09:45;11.80;56.60
6954;DHT22;3516;47.980;8.808;2023-04-24T16:12:12;11.70;55.40
6954;DHT22;3516;47.980;8.808;2023-04-24T16:14:39;11.70;58.00
6954;DHT22;3516;47.980;8.808;2023-04-24T16:17:06;11.70;57.20
6954;DHT22;3516;47.980;8.808;2023-04-24T16:19:32;11.70;55.70
6954;DHT22;3516;47.980;8.808;2023-04-24T16:22:01;11.70;56.90
6954;DHT22;3516;47.980;8.808;2023-04-24T16:24:28;11.80;56.10
6954;DHT22;3516;47.980;8.808;2023-04-24T16:26:55;11.80;54.40
6954;DHT22;3516;47.980;8.808;2023-04-24T16:29:22;11.80;54.70
6954;DHT22;3516;47.980;8.808;2023-04-24T16:31:49;11.90;53.20
6954;DHT22;3516;47.980;8.808;2023-04-24T16:34:15;11.90;52.20
6954;DHT22;3516;47.980;8.808;2023-04-24T16:36:42;11.90;50.70
6954;DHT22;3516;47.980;8.808;2023-04-24T16:39:10;11.90;52.30
6954;DHT22;3516;47.980;8.808;2023-04-24T16:41:37;12.00;51.70
6954;DHT22;3516;47.980;8.808;2023-04-24T16:44:04;11.90;50.70
6954;DHT22;3516;47.980;8.808;2023-04-24T16:46:31;11.90;50.10
6954;DHT22;3516;47.980;8.808;2023-04-24T16:48:58;11.70;50.00
6954;DHT22;3516;47.980;8.808;2023-04-24T16:51:24;11.70;51.40
6954;DHT22;3516;47.980;8.808;2023-04-24T16:53:52;11.60;51.10
6954;DHT22;3516;47.980;8.808;2023-04-24T16:56:21;11.60;50.70
6954;DHT22;3516;47.980;8.808;2023-04-24T16:58:47;11.50;50.80
6954;DHT22;3516;47.980;8.808;2023-04-24T17:01:14;11.40;51.00
6954;DHT22;3516;47.980;8.808;2023-04-24T17:03:41;11.30;51.30
6954;DHT22;3516;47.980;8.808;2023-04-24T17:06:08;11.20;52.60
6954;DHT22;3516;47.980;8.808;2023-04-24T17:08:35;11.20;52.20
6954;DHT22;3516;47.980;8.808;2023-04-24T17:11:01;11.10;51.40
6954;DHT22;3516;47.980;8.808;2023-04-24T17:13:30;11.00;51.70
6954;DHT22;3516;47.980;8.808;2023-04-24T17:15:57;10.80;51.70
6954;DHT22;3516;47.980;8.808;2023-04-24T17:18:23;10.80;50.90
6954;DHT22;3516;47.980;8.808;2023-04-24T17:20:50;10.70;50.20
6954;DHT22;3516;47.980;8.808;2023-04-24T17:23:19;10.70;50.50
6954;DHT22;3516;47.980;8.808;2023-04-24T17:25:46;10.70;50.00
6954;DHT22;3516;47.980;8.808;2023-04-24T17:28:21;10.60;49.90
6954;DHT22;3516;47.980;8.808;2023-04-24T17:30:50;10.50;50.20
6954;DHT22;3516;47.980;8.808;2023-04-24T17:33:19;10.40;50.70
6954;DHT22;3516;47.980;8.808;2023-04-24T17:35:45;10.40;52.10
6954;DHT22;3516;47.980;8.808;2023-04-24T17:38:13;10.30;52.30
6954;DHT22;3516;47.980;8.808;2023-04-24T17:40:42;10.20;52.20
6954;DHT22;3516;47.980;8.808;2023-04-24T17:43:16;10.10;53.00
6954;DHT22;3516;47.980;8.808;2023-04-24T17:45:56;10.10;53.80
6954;DHT22;3516;47.980;8.808;2023-04-24T17:48:26;10.00;54.00
6954;DHT22;3516;47.980;8.808;2023-04-24T17:50:56;9.90;56.40
6954;DHT22;3516;47.980;8.808;2023-04-24T17:53:31;9.90;57.70
6954;DHT22;3516;47.980;8.808;2023-04-24T17:55:58;9.80;58.90
6954;DHT22;3516;47.980;8.808;2023-04-24T17:58:28;9.80;60.40
6954;DHT22;3516;47.980;8.808;2023-04-24T18:01:04;9.70;62.20
6954;DHT22;3516;47.980;8.808;2023-04-24T18:03:42;9.70;64.50
6954;DHT22;3516;47.980;8.808;2023-04-24T18:06:12;9.70;65.60
6954;DHT22;3516;47.980;8.808;2023-04-24T18:08:43;9.60;66.80
6954;DHT22;3516;47.980;8.808;2023-04-24T18:11:10;9.60;68.00
6954;DHT22;3516;47.980;8.808;2023-04-24T18:13:39;9.50;70.10
6954;DHT22;3516;47.980;8.808;2023-04-24T18:16:21;9.50;71.90
6954;DHT22;3516;47.980;8.808;2023-04-24T18:18:53;9.40;73.20
6954;DHT22;3516;47.980;8.808;2023-04-24T18:21:20;9.40;74.70
6954;DHT22;3516;47.980;8.808;2023-04-24T18:23:48;9.30;73.80
6954;DHT22;3516;47.980;8.808;2023-04-24T18:26:24;9.30;76.10
6954;DHT22;3516;47.980;8.808;2023-04-24T18:28:51;9.30;78.20
6954;DHT22;3516;47.980;8.808;2023-04-24T18:31:19;9.20;78.20
6954;DHT22;3516;47.980;8.808;2023-04-24T18:33:47;9.20;80.10
6954;DHT22;3516;47.980;8.808;2023-04-24T18:36:14;9.10;82.80
6954;DHT22;3516;47.980;8.808;2023-04-24T18:38:43;9.00;82.10
6954;DHT22;3516;47.980;8.808;2023-04-24T18:41:12;8.90;82.90
6954;DHT22;3516;47.980;8.808;2023-04-24T18:43:41;8.80;87.50
6954;DHT22;3516;47.980;8.808;2023-04-24T18:46:08;8.70;90.70
6954;DHT22;3516;47.980;8.808;2023-04-24T18:48:36;8.50;93.10
6954;DHT22;3516;47.980;8.808;2023-04-24T18:51:03;8.30;94.50
6954;DHT22;3516;47.980;8.808;2023-04-24T18:53:31;8.20;97.10
6954;DHT22;3516;47.980;8.808;2023-04-24T18:55:58;8.10;99.40
6954;DHT22;3516;47.980;8.808;2023-04-24T18:58:30;8.00;99.90
6954;DHT22;3516;47.980;8.808;2023-04-24T19:01:09;7.90;99.90
6954;DHT22;3516;47.980;8.808;2023-04-24T19:03:37;7.80;99.90
6954;DHT22;3516;47.980;8.808;2023-04-24T19:06:08;7.70;99.90
6954;DHT22;3516;47.980;8.808;2023-04-24T19:08:35;7.60;99.90
6954;DHT22;3516;47.980;8.808;2023-04-24T19:11:03;7.60;99.90
6954;DHT22;3516;47.980;8.808;2023-04-24T19:13:31;7.60;99.90
6954;DHT22;3516;47.980;8.808;2023-04-24T19:16:01;7.50;99.90
6954;DHT22;3516;47.980;8.808;2023-04-24T19:18:39;7.50;99.90
6954;DHT22;3516;47.980;8.808;2023-04-24T19:21:13;7.40;99.90
6954;DHT22;3516;47.980;8.808;2023-04-24T19:23:43;7.40;99.90
6954;DHT22;3516;47.980;8.808;2023-04-24T19:26:17;7.50;99.90
6954;DHT22;3516;47.980;8.808;2023-04-24T19:28:44;7.50;99.90
6954;DHT22;3516;47.980;8.808;2023-04-24T19:31:11;7.50;99.90
6954;DHT22;3516;47.980;8.808;2023-04-24T19:33:42;7.50;99.90
6954;DHT22;3516;47.980;8.808;2023-04-24T19:36:14;7.50;99.90
6954;DHT22;3516;47.980;8.808;2023-04-24T19:38:44;7.50;99.90
6954;DHT22;3516;47.980;8.808;2023-04-24T19:41:12;7.40;99.90
6954;DHT22;3516;47.980;8.808;2023-04-24T19:43:44;7.40;99.90
6954;DHT22;3516;47.980;8.808;2023-04-24T19:46:15;7.30;99.90
6954;DHT22;3516;47.980;8.808;2023-04-24T19:48:50;7.20;99.90
6954;DHT22;3516;47.980;8.808;2023-04-24T19:51:20;7.20;99.90
6954;DHT22;3516;47.980;8.808;2023-04-24T19:53:53;7.30;99.90
6954;DHT22;3516;47.980;8.808;2023-04-24T19:56:29;7.30;99.90
6954;DHT22;3516;47.980;8.808;2023-04-24T19:59:00;7.30;99.90
6954;DHT22;3516;47.980;8.808;2023-04-24T20:01:28;7.20;99.90
6954;DHT22;3516;47.980;8.808;2023-04-24T20:03:58;7.10;99.90
6954;DHT22;3516;47.980;8.808;2023-04-24T20:06:28;7.00;99.90
6954;DHT22;3516;47.980;8.808;2023-04-24T20:08:58;6.90;99.90
6954;DHT22;3516;47.980;8.808;2023-04-24T20:11:34;6.80;99.90
6954;DHT22;3516;47.980;8.808;2023-04-24T20:14:07;6.70;99.90
6954;DHT22;3516;47.980;8.808;2023-04-24T20:16:36;6.60;99.90
6954;DHT22;3516;47.980;8.808;2023-04-24T20:19:06;6.60;99.90
6954;DHT22;3516;47.980;8.808;2023-04-24T20:21:46;6.50;99.90
6954;DHT22;3516;47.980;8.808;2023-04-24T20:24:14;6.50;99.90
6954;DHT22;3516;47.980;8.808;2023-04-24T20:26:41;6.40;99.90
6954;DHT22;3516;47.980;8.808;2023-04-24T20:29:14;6.50;99.90
6954;DHT22;3516;47.980;8.808;2023-04-24T20:31:46;6.50;99.90
6954;DHT22;3516;47.980;8.808;2023-04-24T20:34:16;6.50;99.90
6954;DHT22;3516;47.980;8.808;2023-04-24T20:36:45;6.50;99.90
6954;DHT22;3516;47.980;8.808;2023-04-24T20:39:31;6.50;99.90
6954;DHT22;3516;47.980;8.808;2023-04-24T20:42:01;6.50;99.90
6954;DHT22;3516;47.980;8.808;2023-04-24T20:44:32;6.50;99.90
6954;DHT22;3516;47.980;8.808;2023-04-24T20:47:00;6.50;99.90
6954;DHT22;3516;47.980;8.808;2023-04-24T20:49:29;6.40;99.90
6954;DHT22;3516;47.980;8.808;2023-04-24T20:52:12;6.40;99.90
6954;DHT22;3516;47.980;8.808;2023-04-24T20:54:39;6.30;99.90
6954;DHT22;3516;47.980;8.808;2023-04-24T20:57:06;6.30;99.90
6954;DHT22;3516;47.980;8.808;2023-04-24T20:59:36;6.20;99.90
6954;DHT22;3516;47.980;8.808;2023-04-24T21:02:10;6.10;99.90
6954;DHT22;3516;47.980;8.808;2023-04-24T21:04:40;6.10;99.90
6954;DHT22;3516;47.980;8.808;2023-04-24T21:07:08;6.10;99.90
6954;DHT22;3516;47.980;8.808;2023-04-24T21:09:37;6.00;99.90
6954;DHT22;3516;47.980;8.808;2023-04-24T21:12:05;6.00;99.90
6954;DHT22;3516;47.980;8.808;2023-04-24T21:14:34;6.00;99.90
6954;DHT22;3516;47.980;8.808;2023-04-24T21:17:03;5.90;99.90
6954;DHT22;3516;47.980;8.808;2023-04-24T21:19:31;5.90;99.90
6954;DHT22;3516;47.980;8.808;2023-04-24T21:22:02;5.80;99.90
6954;DHT22;3516;47.980;8.808;2023-04-24T21:24:29;5.70;99.90
6954;DHT22;3516;47.980;8.808;2023-04-24T21:26:57;5.60;99.90
6954;DHT22;3516;47.980;8.808;2023-04-24T21:29:27;5.60;99.90
6954;DHT22;3516;47.980;8.808;2023-04-24T21:32:03;5.50;99.90
6954;DHT22;3516;47.980;8.808;2023-04-24T21:34:32;5.40;99.90
6954;DHT22;3516;47.980;8.808;2023-04-24T21:37:04;5.40;99.90
6954;DHT22;3516;47.980;8.808;2023-04-24T21:39:34;5.30;99.90
6954;DHT22;3516;47.980;8.808;2023-04-24T21:42:03;5.20;99.90
6954;DHT22;3516;47.980;8.808;2023-04-24T21:44:34;5.20;99.90
6954;DHT22;3516;47.980;8.808;2023-04-24T21:47:04;5.10;99.90
